Time;durP1;ratioP1;P1;durP2;ratioP2;P2;SDS_P1;SDS_P2;PMS_P1;PMS_P2;Temp;Humidity;BMP_temperature;BMP_pressure;BME280_temperature;BME280_humidity;BME280_pressure;Samples;Min_cycle;Max_cycle;Signal;HPM_P1;HPM_P2
2022/04/07 04:00:30;;;;;;;0.98;0.63;;;9.20;99.90;;;;;;6259670;22;21042;-74
2022/04/07 04:02:56;;;;;;;0.77;0.65;;;9.20;99.90;;;;;;6315261;22;20101;-75
2022/04/07 04:05:23;;;;;;;0.85;0.80;;;9.20;99.90;;;;;;6314991;22;20020;-75
2022/04/07 04:07:48;;;;;;;2.25;0.90;;;9.30;99.90;;;;;;6312776;22;20420;-74
2022/04/07 04:10:14;;;;;;;0.98;0.70;;;9.30;99.90;;;;;;6312522;22;20012;-75
2022/04/07 04:12:39;;;;;;;1.83;0.70;;;9.30;99.90;;;;;;6314894;22;20007;-75
2022/04/07 04:15:05;;;;;;;0.60;0.50;;;9.30;99.90;;;;;;6315610;22;20524;-75
2022/04/07 04:17:31;;;;;;;0.93;0.68;;;9.30;99.90;;;;;;6314918;22;20008;-75
2022/04/07 04:19:57;;;;;;;1.30;0.80;;;9.30;99.90;;;;;;6314687;22;20012;-75
2022/04/07 04:22:23;;;;;;;1.10;0.77;;;9.30;99.90;;;;;;6314855;22;20000;-75
2022/04/07 04:24:49;;;;;;;2.78;0.80;;;9.30;99.90;;;;;;6314709;22;20316;-74
2022/04/07 04:27:15;;;;;;;1.10;0.95;;;9.40;99.90;;;;;;6314847;22;20083;-74
2022/04/07 04:29:43;;;;;;;2.28;1.50;;;9.40;99.90;;;;;;6314523;22;20515;-75
2022/04/07 04:32:09;;;;;;;1.10;0.90;;;9.40;99.90;;;;;;6314598;22;19999;-74
2022/04/07 04:34:35;;;;;;;1.33;0.98;;;9.40;99.90;;;;;;6315152;22;20887;-74
2022/04/07 04:37:01;;;;;;;1.60;0.90;;;9.50;99.90;;;;;;6314671;22;20043;-74
2022/04/07 04:39:26;;;;;;;0.98;0.85;;;9.50;99.90;;;;;;6314475;22;20015;-75
2022/04/07 04:41:52;;;;;;;1.15;0.77;;;9.40;99.90;;;;;;6314566;22;20008;-75
2022/04/07 04:44:17;;;;;;;2.03;0.80;;;9.40;99.90;;;;;;6314795;22;20039;-74
2022/04/07 04:46:43;;;;;;;1.10;0.80;;;9.40;99.90;;;;;;6314688;22;20087;-74
2022/04/07 04:49:08;;;;;;;1.40;0.70;;;9.50;99.90;;;;;;6312579;22;20022;-74
2022/04/07 04:51:34;;;;;;;1.00;0.68;;;9.50;99.90;;;;;;6314346;22;20030;-75
2022/04/07 04:53:59;;;;;;;1.70;0.80;;;9.50;99.90;;;;;;6314764;22;20394;-74
2022/04/07 04:56:27;;;;;;;1.20;0.80;;;9.50;99.90;;;;;;6314635;22;20011;-74
2022/04/07 04:58:53;;;;;;;0.85;0.70;;;9.50;99.90;;;;;;6314438;22;20007;-74
2022/04/07 05:01:19;;;;;;;1.00;0.70;;;9.70;99.90;;;;;;6314268;22;20030;-74
2022/04/07 05:03:44;;;;;;;1.05;0.60;;;9.60;99.90;;;;;;6314678;22;20011;-74
2022/04/07 05:06:10;;;;;;;1.83;0.52;;;9.70;99.90;;;;;;6314051;22;23796;-74
2022/04/07 05:08:35;;;;;;;1.27;0.60;;;9.70;99.90;;;;;;6314364;22;20011;-74
2022/04/07 05:11:01;;;;;;;1.38;0.73;;;9.70;99.90;;;;;;6314407;22;20000;-74
2022/04/07 05:13:26;;;;;;;0.95;0.57;;;9.70;99.90;;;;;;6314439;22;20058;-74
2022/04/07 05:15:52;;;;;;;1.20;0.70;;;9.70;99.90;;;;;;6314686;22;20333;-74
2022/04/07 05:18:17;;;;;;;0.88;0.70;;;9.70;99.90;;;;;;6314250;22;20012;-75
2022/04/07 05:20:43;;;;;;;1.48;0.70;;;9.70;99.90;;;;;;6314154;22;20423;-74
2022/04/07 05:23:08;;;;;;;1.00;0.77;;;9.70;99.90;;;;;;6314518;22;20521;-75
2022/04/07 05:25:34;;;;;;;1.15;0.90;;;9.70;99.90;;;;;;6314335;22;20085;-74
2022/04/07 05:27:59;;;;;;;2.25;1.25;;;9.80;99.90;;;;;;6314126;22;20046;-74
2022/04/07 05:30:25;;;;;;;0.65;0.60;;;9.80;99.90;;;;;;6314293;22;20065;-74
2022/04/07 05:32:51;;;;;;;0.57;0.57;;;9.80;99.90;;;;;;6314551;22;20414;-74
2022/04/07 05:35:17;;;;;;;0.77;0.60;;;9.80;99.90;;;;;;6314549;22;20332;-75
2022/04/07 05:37:42;;;;;;;1.13;0.70;;;9.90;99.90;;;;;;6314453;22;20059;-75
2022/04/07 05:40:12;;;;;;;0.60;0.55;;;9.90;99.90;;;;;;6313995;22;20008;-75
2022/04/07 05:42:39;;;;;;;0.73;0.60;;;9.90;99.90;;;;;;6314449;22;20043;-75
2022/04/07 05:45:05;;;;;;;0.82;0.60;;;9.90;99.90;;;;;;6286858;22;20098;-76
2022/04/07 05:47:37;;;;;;;2.25;0.70;;;10.00;99.90;;;;;;6286706;22;20081;-76
2022/04/07 05:50:03;;;;;;;0.60;0.60;;;10.20;99.90;;;;;;6314089;22;20019;-76
2022/04/07 05:52:29;;;;;;;1.15;0.80;;;10.20;99.90;;;;;;6315665;22;20346;-76
2022/04/07 05:54:54;;;;;;;0.90;0.73;;;10.40;99.90;;;;;;6313776;22;22256;-74
2022/04/07 05:57:22;;;;;;;1.08;0.70;;;10.40;99.90;;;;;;6314442;22;20030;-75
2022/04/07 05:59:47;;;;;;;0.98;0.70;;;10.40;99.90;;;;;;6314191;22;20393;-75
2022/04/07 06:02:13;;;;;;;1.40;0.80;;;10.50;99.90;;;;;;6313812;22;20083;-77
2022/04/07 06:04:40;;;;;;;1.00;0.90;;;10.80;99.90;;;;;;6286848;22;20135;-76
2022/04/07 06:07:06;;;;;;;0.55;0.50;;;10.60;99.90;;;;;;6286784;22;20508;-77
2022/04/07 06:09:33;;;;;;;0.57;0.57;;;10.70;99.90;;;;;;6313911;22;20099;-76
2022/04/07 06:11:58;;;;;;;0.80;0.60;;;10.70;99.90;;;;;;6314203;22;20006;-76
2022/04/07 06:14:24;;;;;;;0.70;0.60;;;10.80;99.90;;;;;;6314320;22;20023;-77
2022/04/07 06:16:49;;;;;;;0.50;0.50;;;10.70;99.90;;;;;;6314407;22;20489;-75
2022/04/07 06:19:15;;;;;;;0.70;0.60;;;10.70;99.90;;;;;;6286722;22;20014;-75
2022/04/07 06:21:43;;;;;;;1.35;0.50;;;10.70;99.90;;;;;;6286869;22;20011;-75
2022/04/07 06:24:08;;;;;;;1.10;0.50;;;10.80;99.90;;;;;;6314256;22;20057;-74
2022/04/07 06:26:40;;;;;;;1.95;0.50;;;10.80;99.90;;;;;;6314355;22;20158;-76
2022/04/07 06:29:05;;;;;;;0.95;0.55;;;10.90;99.90;;;;;;6286063;22;21652;-76
2022/04/07 06:31:31;;;;;;;3.08;1.63;;;10.90;99.90;;;;;;6313380;22;20054;-77
2022/04/07 06:33:56;;;;;;;4.80;1.00;;;10.90;99.90;;;;;;6286244;22;21547;-76
2022/04/07 06:36:22;;;;;;;3.13;1.13;;;10.90;99.90;;;;;;6286248;22;20331;-75
2022/04/07 06:38:47;;;;;;;4.07;3.08;;;10.90;99.90;;;;;;6314069;22;20014;-77
2022/04/07 06:41:13;;;;;;;5.63;3.13;;;10.80;99.90;;;;;;6313782;22;19999;-76
2022/04/07 06:43:39;;;;;;;3.83;2.25;;;10.80;99.90;;;;;;6286441;22;21152;-76
2022/04/07 06:46:07;;;;;;;6.03;3.40;;;10.90;99.90;;;;;;6314215;22;20000;-76
2022/04/07 06:48:32;;;;;;;4.05;2.58;;;10.80;99.90;;;;;;6313416;22;20043;-76
2022/04/07 06:50:58;;;;;;;4.40;2.28;;;10.90;99.90;;;;;;6286852;22;20008;-77
2022/04/07 06:53:24;;;;;;;1.00;0.70;;;10.90;99.90;;;;;;6314197;22;20012;-78
2022/04/07 06:55:49;;;;;;;2.65;1.50;;;10.90;99.90;;;;;;6314692;22;20004;-77
2022/04/07 06:58:15;;;;;;;2.00;1.10;;;10.80;99.90;;;;;;6314086;22;20015;-77
2022/04/07 07:00:45;;;;;;;1.20;0.95;;;10.80;99.90;;;;;;6287949;22;20007;-77
2022/04/07 07:03:14;;;;;;;1.23;0.70;;;10.80;99.90;;;;;;6315627;22;20100;-76
2022/04/07 07:05:39;;;;;;;2.45;1.10;;;10.80;99.90;;;;;;6315394;22;20007;-77
2022/04/07 07:08:20;;;;;;;3.40;2.60;;;10.90;99.90;;;;;;6312508;22;20012;-76
2022/04/07 07:10:47;;;;;;;3.38;1.30;;;11.00;99.90;;;;;;6313972;22;20066;-76
2022/04/07 07:13:16;;;;;;;2.05;1.00;;;11.00;99.90;;;;;;6312194;22;20479;-76
2022/04/07 07:15:42;;;;;;;1.30;0.40;;;11.20;99.90;;;;;;6313865;22;20004;-77
2022/04/07 07:18:07;;;;;;;1.05;0.77;;;11.30;99.90;;;;;;6311964;22;20007;-77
2022/04/07 07:20:34;;;;;;;0.88;0.68;;;11.30;99.90;;;;;;6313565;22;20332;-77
2022/04/07 07:22:59;;;;;;;0.95;0.57;;;11.30;99.90;;;;;;6312099;22;20452;-75
2022/04/07 07:25:25;;;;;;;0.50;0.50;;;11.20;99.90;;;;;;6313187;22;21701;-77
2022/04/07 07:27:50;;;;;;;2.92;0.70;;;11.20;99.90;;;;;;6313769;22;20016;-77
2022/04/07 07:30:17;;;;;;;1.73;0.60;;;11.20;99.90;;;;;;6313799;22;20058;-76
2022/04/07 07:32:59;;;;;;;0.90;0.50;;;11.30;99.90;;;;;;6313995;22;20010;-78
2022/04/07 07:35:25;;;;;;;5.25;0.60;;;11.30;99.90;;;;;;6312117;22;20012;-77
2022/04/07 07:37:55;;;;;;;3.45;0.47;;;11.40;99.90;;;;;;6313711;22;20000;-76
2022/04/07 07:40:27;;;;;;;0.93;0.30;;;11.50;99.90;;;;;;6313528;22;20035;-79
2022/04/07 07:42:55;;;;;;;0.60;0.40;;;11.60;99.90;;;;;;6314427;22;20011;-77
2022/04/07 07:45:22;;;;;;;0.85;0.50;;;11.70;99.90;;;;;;6315113;22;20003;-77
2022/04/07 07:47:47;;;;;;;2.05;0.73;;;11.80;99.90;;;;;;6315076;22;20031;-77
2022/04/07 07:50:13;;;;;;;1.58;0.70;;;12.00;99.90;;;;;;6314459;22;20097;-78
2022/04/07 07:52:39;;;;;;;1.42;0.73;;;12.00;99.90;;;;;;6315218;22;20008;-77
2022/04/07 07:55:05;;;;;;;0.70;0.60;;;12.30;99.90;;;;;;6315167;22;20015;-77
2022/04/07 07:57:31;;;;;;;0.47;0.40;;;12.20;99.90;;;;;;6314990;22;20004;-76
2022/04/07 07:59:58;;;;;;;3.10;0.50;;;12.20;99.90;;;;;;6313173;22;20008;-77
2022/04/07 08:02:23;;;;;;;1.05;0.32;;;12.30;99.90;;;;;;6314476;22;20012;-76
2022/04/07 08:04:49;;;;;;;0.43;0.35;;;12.40;99.90;;;;;;6287278;22;20094;-78
2022/04/07 08:07:14;;;;;;;0.98;0.40;;;12.20;99.90;;;;;;6315099;22;20004;-78
2022/04/07 08:09:40;;;;;;;1.20;0.50;;;12.10;99.90;;;;;;6314528;22;20019;-77
2022/04/07 08:12:06;;;;;;;0.40;0.40;;;12.10;99.90;;;;;;6314670;22;20092;-75
2022/04/07 08:14:32;;;;;;;3.53;0.50;;;12.00;99.90;;;;;;6286814;22;20023;-75
2022/04/07 08:16:58;;;;;;;0.90;0.50;;;12.00;99.90;;;;;;6314945;22;20078;-75
2022/04/07 08:19:24;;;;;;;2.83;0.60;;;11.90;99.90;;;;;;6314492;22;20734;-75
2022/04/07 08:21:49;;;;;;;2.92;0.32;;;12.00;99.90;;;;;;6314521;22;20031;-75
2022/04/07 08:24:22;;;;;;;0.32;0.30;;;11.90;99.90;;;;;;6314667;22;20008;-75
2022/04/07 08:26:48;;;;;;;0.75;0.30;;;11.90;99.90;;;;;;6315077;22;20113;-75
2022/04/07 08:29:14;;;;;;;1.83;0.50;;;11.90;99.90;;;;;;6286535;22;20162;-75
2022/04/07 08:31:39;;;;;;;2.25;0.60;;;11.80;99.90;;;;;;6314483;22;20081;-75
2022/04/07 08:34:05;;;;;;;1.77;0.50;;;12.00;99.90;;;;;;6314902;22;20362;-75
2022/04/07 08:36:31;;;;;;;1.25;0.40;;;12.10;99.90;;;;;;6314701;22;20003;-75
2022/04/07 08:38:56;;;;;;;1.17;0.40;;;12.20;99.90;;;;;;6286830;22;20008;-75
2022/04/07 08:41:23;;;;;;;1.27;0.30;;;12.30;99.90;;;;;;6314543;22;20390;-75
2022/04/07 08:43:49;;;;;;;0.30;0.30;;;12.40;99.90;;;;;;6314648;22;20018;-75
2022/04/07 08:46:14;;;;;;;0.60;0.45;;;12.60;99.90;;;;;;6314541;22;20004;-76
2022/04/07 08:48:42;;;;;;;1.85;0.40;;;13.00;99.90;;;;;;6286659;22;20069;-75
2022/04/07 08:51:09;;;;;;;1.27;0.40;;;13.30;99.90;;;;;;6314455;22;20008;-75
2022/04/07 08:53:35;;;;;;;1.17;0.50;;;13.30;99.90;;;;;;6314548;22;20090;-76
2022/04/07 08:56:02;;;;;;;2.47;0.40;;;13.00;99.90;;;;;;6314392;22;20085;-75
2022/04/07 08:58:29;;;;;;;1.58;0.55;;;13.30;99.90;;;;;;6314342;22;20043;-75
2022/04/07 09:00:54;;;;;;;0.73;0.40;;;13.10;99.90;;;;;;6314244;22;20016;-75
2022/04/07 09:03:20;;;;;;;1.20;0.40;;;13.20;99.90;;;;;;6314889;22;20010;-75
2022/04/07 09:06:00;;;;;;;1.38;0.60;;;13.20;99.90;;;;;;6314619;22;20023;-75
2022/04/07 09:08:34;;;;;;;3.47;0.70;;;13.00;99.90;;;;;;6314170;22;20011;-75
2022/04/07 09:11:01;;;;;;;2.80;0.40;;;13.00;99.90;;;;;;6314180;22;20503;-75
2022/04/07 09:13:34;;;;;;;0.98;0.40;;;12.80;99.90;;;;;;6314614;22;20407;-75
2022/04/07 09:16:03;;;;;;;1.27;0.70;;;12.70;99.90;;;;;;6286859;22;20085;-75
2022/04/07 09:18:36;;;;;;;1.67;0.63;;;12.40;99.90;;;;;;6314354;22;20008;-75
2022/04/07 09:21:02;;;;;;;2.03;0.70;;;12.30;99.90;;;;;;6314665;22;20014;-75
2022/04/07 09:23:41;;;;;;;1.23;0.50;;;12.10;99.90;;;;;;6314559;22;20574;-76
2022/04/07 09:26:15;;;;;;;1.15;0.60;;;11.70;99.90;;;;;;6314655;22;20441;-76
2022/04/07 09:28:41;;;;;;;1.10;0.60;;;11.50;99.90;;;;;;6314130;22;20004;-76
2022/04/07 09:31:15;;;;;;;1.60;0.55;;;11.40;99.90;;;;;;6286527;22;20019;-76
2022/04/07 09:33:41;;;;;;;5.05;0.60;;;11.40;99.90;;;;;;6286835;22;20517;-76
2022/04/07 09:36:10;;;;;;;0.75;0.73;;;11.30;99.90;;;;;;6314594;22;20008;-76
2022/04/07 09:38:37;;;;;;;2.13;0.50;;;11.20;99.90;;;;;;6314179;22;20062;-76
2022/04/07 09:41:13;;;;;;;0.50;0.38;;;11.20;99.90;;;;;;6314348;22;20015;-76
2022/04/07 09:43:43;;;;;;;1.20;0.80;;;11.40;99.90;;;;;;6314534;22;20023;-76
2022/04/07 09:46:10;;;;;;;1.30;1.05;;;11.50;99.90;;;;;;6286774;22;20008;-76
2022/04/07 09:48:37;;;;;;;1.65;0.60;;;11.50;99.90;;;;;;6314081;22;20003;-76
2022/04/07 09:51:07;;;;;;;1.88;0.50;;;11.60;99.90;;;;;;6314488;22;20406;-77
2022/04/07 09:53:42;;;;;;;0.30;0.30;;;11.60;99.90;;;;;;6287066;22;20058;-76
2022/04/07 09:56:08;;;;;;;3.45;0.47;;;11.50;99.90;;;;;;6314454;22;20383;-76
2022/04/07 09:58:35;;;;;;;3.47;0.50;;;11.30;99.90;;;;;;6314094;22;20007;-76
2022/04/07 10:01:02;;;;;;;0.30;0.30;;;11.30;99.90;;;;;;6313896;22;20003;-76
2022/04/07 10:03:29;;;;;;;0.30;0.30;;;11.50;99.90;;;;;;6314407;22;20006;-76
2022/04/07 10:05:56;;;;;;;0.50;0.50;;;11.50;99.90;;;;;;6313846;22;20007;-76
2022/04/07 10:08:23;;;;;;;0.30;0.30;;;11.30;99.90;;;;;;6286039;22;20109;-76
2022/04/07 10:10:49;;;;;;;1.73;0.50;;;11.20;99.90;;;;;;6314214;22;20043;-76
2022/04/07 10:13:14;;;;;;;1.20;0.70;;;11.00;99.90;;;;;;6314186;22;20039;-76
2022/04/07 10:15:41;;;;;;;1.27;0.60;;;11.10;99.90;;;;;;6287450;22;20015;-76
2022/04/07 10:18:13;;;;;;;0.70;0.55;;;11.10;99.90;;;;;;6286443;22;20082;-76
2022/04/07 10:20:45;;;;;;;0.30;0.30;;;11.10;99.90;;;;;;6314157;22;20008;-79
2022/04/07 10:23:16;;;;;;;1.05;0.30;;;11.10;99.90;;;;;;6314360;22;20058;-76
2022/04/07 10:25:45;;;;;;;1.95;0.32;;;11.20;99.90;;;;;;6314338;22;20061;-74
2022/04/07 10:28:13;;;;;;;0.50;0.20;;;11.50;99.90;;;;;;6313600;22;20499;-75
2022/04/07 10:30:48;;;;;;;0.25;0.20;;;11.60;99.90;;;;;;6313673;22;20016;-76
2022/04/07 10:33:40;;;;;;;1.40;0.50;;;11.70;99.90;;;;;;6314012;22;20439;-76
2022/04/07 10:36:17;;;;;;;0.98;0.40;;;11.80;99.90;;;;;;6314168;22;20004;-76
2022/04/07 10:38:45;;;;;;;0.55;0.30;;;11.90;99.90;;;;;;6314215;22;20403;-76
2022/04/07 10:41:11;;;;;;;0.30;0.30;;;12.10;99.90;;;;;;6313736;22;20034;-76
2022/04/07 10:43:40;;;;;;;0.40;0.30;;;12.30;99.90;;;;;;6286605;22;20087;-75
2022/04/07 10:46:12;;;;;;;0.60;0.40;;;12.60;99.90;;;;;;6314015;22;20004;-76
2022/04/07 10:48:45;;;;;;;2.85;0.60;;;12.70;99.90;;;;;;6313688;22;20003;-75
2022/04/07 10:51:12;;;;;;;0.88;0.40;;;12.90;99.90;;;;;;6313750;22;20179;-75
2022/04/07 10:53:53;;;;;;;0.93;0.70;;;13.00;99.90;;;;;;6286212;22;20057;-75
2022/04/07 10:56:39;;;;;;;0.88;0.52;;;12.90;99.90;;;;;;6286558;22;20370;-75
2022/04/07 10:59:24;;;;;;;2.15;0.50;;;12.90;99.90;;;;;;6286093;22;20073;-75
2022/04/07 11:02:04;;;;;;;0.43;0.30;;;12.90;99.90;;;;;;6287031;22;20355;-75
2022/04/07 11:04:35;;;;;;;1.17;0.40;;;12.90;99.90;;;;;;6314306;22;20006;-75
2022/04/07 11:10:02;;;;;;;0.55;0.40;;;12.80;99.90;;;;;;6313486;22;20023;-75
2022/04/07 11:12:37;;;;;;;0.38;0.30;;;12.80;99.90;;;;;;6286325;22;20091;-75
2022/04/07 11:15:03;;;;;;;0.75;0.40;;;12.90;99.90;;;;;;6313962;22;20305;-76
2022/04/07 11:17:37;;;;;;;0.32;0.30;;;12.90;99.90;;;;;;6314336;22;20082;-76
2022/04/07 11:20:21;;;;;;;0.40;0.30;;;12.90;99.90;;;;;;6315223;22;20444;-76
2022/04/07 11:22:49;;;;;;;0.22;0.20;;;13.00;99.90;;;;;;6315272;22;20011;-77
2022/04/07 11:25:22;;;;;;;0.38;0.30;;;13.10;99.90;;;;;;6315154;22;20011;-77
2022/04/07 11:28:10;;;;;;;1.85;0.35;;;13.10;99.90;;;;;;6315242;22;20011;-77
2022/04/07 11:30:53;;;;;;;0.50;0.30;;;13.20;99.90;;;;;;6287464;22;20023;-76
2022/04/07 11:35:59;;;;;;;2.70;0.35;;;13.30;99.90;;;;;;6315328;22;20015;-76
2022/04/07 11:38:35;;;;;;;0.30;0.20;;;13.40;99.90;;;;;;6287195;22;20004;-77
2022/04/07 11:41:01;;;;;;;1.88;0.28;;;13.90;99.90;;;;;;6314682;22;20011;-77
2022/04/07 11:43:27;;;;;;;0.20;0.20;;;14.00;99.90;;;;;;6315052;22;20007;-76
2022/04/07 11:45:54;;;;;;;1.67;0.50;;;14.10;99.90;;;;;;6314998;22;20008;-77
2022/04/07 11:48:21;;;;;;;0.30;0.30;;;14.20;99.90;;;;;;6287166;22;20055;-76
2022/04/07 11:50:46;;;;;;;0.38;0.30;;;14.30;99.90;;;;;;6315149;22;20761;-76
2022/04/07 11:53:12;;;;;;;2.97;0.50;;;14.50;99.90;;;;;;6314986;22;20000;-75
2022/04/07 11:55:38;;;;;;;0.60;0.47;;;14.70;99.90;;;;;;6287319;22;20007;-76
2022/04/07 11:58:03;;;;;;;1.40;0.75;;;14.60;99.90;;;;;;6314815;22;20000;-76
2022/04/07 12:00:30;;;;;;;0.60;0.20;;;14.60;99.90;;;;;;6314570;22;20018;-76
2022/04/07 12:03:00;;;;;;;1.02;0.43;;;14.70;99.90;;;;;;6315036;22;20004;-76
2022/04/07 12:05:26;;;;;;;0.90;0.20;;;14.70;99.90;;;;;;6314904;22;20003;-75
2022/04/07 12:07:54;;;;;;;0.13;0.10;;;14.60;99.90;;;;;;6314716;22;20655;-76
2022/04/07 12:10:20;;;;;;;0.20;0.20;;;14.60;99.90;;;;;;6314566;22;20091;-76
2022/04/07 12:12:46;;;;;;;1.10;0.20;;;14.60;99.90;;;;;;6287316;22;20079;-76
2022/04/07 12:15:15;;;;;;;0.93;0.30;;;14.70;99.90;;;;;;6314837;22;20008;-76
2022/04/07 12:18:04;;;;;;;0.73;0.20;;;14.80;99.90;;;;;;6314787;22;20011;-76
2022/04/07 12:20:30;;;;;;;1.80;0.20;;;14.80;99.90;;;;;;6314830;22;20007;-76
2022/04/07 12:23:08;;;;;;;0.20;0.20;;;15.00;99.90;;;;;;6287378;22;20090;-76
2022/04/07 12:25:38;;;;;;;2.20;0.25;;;15.10;99.90;;;;;;6287022;22;20004;-76
2022/04/07 12:28:12;;;;;;;1.13;0.20;;;15.10;99.90;;;;;;6287684;22;20451;-76
2022/04/07 12:30:48;;;;;;;0.20;0.20;;;15.10;99.90;;;;;;6315215;22;20019;-76
2022/04/07 12:33:43;;;;;;;0.32;0.17;;;14.90;99.90;;;;;;6291783;22;20082;-77
2022/04/07 12:36:11;;;;;;;0.50;0.30;;;14.80;99.90;;;;;;6316042;22;20522;-76
2022/04/07 12:38:37;;;;;;;1.13;0.20;;;15.00;99.90;;;;;;6315067;22;20087;-77
2022/04/07 12:41:17;;;;;;;1.17;0.20;;;15.30;99.90;;;;;;6314863;22;20008;-77
2022/04/07 12:43:50;;;;;;;0.68;0.30;;;15.50;99.90;;;;;;6315029;22;20024;-76
2022/04/07 12:46:20;;;;;;;1.10;0.20;;;15.40;99.90;;;;;;6314862;22;20455;-76
2022/04/07 12:49:06;;;;;;;0.80;0.30;;;15.30;99.90;;;;;;6314601;22;20011;-76
2022/04/07 12:51:36;;;;;;;0.28;0.20;;;15.20;99.90;;;;;;6314564;22;20010;-76
2022/04/07 12:54:12;;;;;;;0.93;0.40;;;15.20;99.90;;;;;;6314661;22;20008;-76
2022/04/07 12:56:39;;;;;;;0.50;0.30;;;15.10;99.90;;;;;;6314564;22;20046;-76
2022/04/07 12:59:14;;;;;;;0.40;0.20;;;15.20;99.90;;;;;;6314210;22;20426;-77
2022/04/07 13:01:48;;;;;;;0.35;0.30;;;15.10;99.90;;;;;;6313985;22;20004;-74
2022/04/07 13:04:14;;;;;;;0.30;0.30;;;15.10;99.90;;;;;;6287133;22;20012;-74
2022/04/07 13:06:39;;;;;;;1.33;0.30;;;15.00;99.90;;;;;;6314399;22;20000;-74
2022/04/07 13:09:06;;;;;;;0.93;0.50;;;15.00;99.90;;;;;;6314197;22;20011;-74
2022/04/07 13:11:40;;;;;;;1.13;0.20;;;15.00;99.90;;;;;;6286553;22;20003;-74
2022/04/07 13:14:11;;;;;;;0.50;0.30;;;14.90;99.90;;;;;;6314516;22;20015;-74
2022/04/07 13:16:39;;;;;;;0.60;0.20;;;15.00;99.90;;;;;;6286984;22;20042;-74
2022/04/07 13:19:05;;;;;;;1.35;0.22;;;15.00;99.90;;;;;;6314313;22;20004;-74
2022/04/07 13:21:33;;;;;;;1.27;0.30;;;15.00;99.90;;;;;;6314231;22;20000;-74
2022/04/07 13:23:59;;;;;;;0.45;0.20;;;15.00;99.90;;;;;;6314603;22;20003;-74
2022/04/07 13:26:24;;;;;;;0.55;0.20;;;15.00;99.90;;;;;;6314728;22;20053;-74
2022/04/07 13:28:51;;;;;;;0.43;0.30;;;15.10;99.90;;;;;;6286562;22;20015;-76
2022/04/07 13:31:17;;;;;;;1.02;0.55;;;15.00;99.90;;;;;;6314377;22;20019;-76
2022/04/07 13:33:43;;;;;;;3.42;0.30;;;15.10;99.90;;;;;;6314408;22;20016;-76
2022/04/07 13:36:09;;;;;;;1.52;0.20;;;15.20;99.90;;;;;;6314476;22;20004;-76
2022/04/07 13:38:35;;;;;;;2.08;0.25;;;15.20;99.30;;;;;;6314315;22;20035;-77
2022/04/07 13:41:01;;;;;;;1.55;0.40;;;15.30;99.80;;;;;;6314028;22;20004;-77
2022/04/07 13:43:28;;;;;;;2.38;0.20;;;15.50;99.30;;;;;;6314397;22;20008;-77
2022/04/07 13:45:54;;;;;;;3.47;0.40;;;15.60;99.20;;;;;;6286795;22;20007;-76
2022/04/07 13:48:20;;;;;;;5.55;0.47;;;15.50;98.80;;;;;;6314102;22;20357;-77
2022/04/07 13:50:46;;;;;;;1.38;0.30;;;15.60;99.70;;;;;;6313909;22;20419;-75
2022/04/07 13:53:19;;;;;;;1.27;0.20;;;15.70;98.70;;;;;;6314323;22;20008;-75
2022/04/07 13:55:45;;;;;;;0.40;0.30;;;15.90;98.90;;;;;;6286700;22;20008;-75
2022/04/07 13:58:11;;;;;;;1.40;0.30;;;15.90;98.10;;;;;;6314048;22;20004;-74
2022/04/07 14:00:43;;;;;;;2.05;0.30;;;16.00;98.50;;;;;;6314063;22;20015;-75
2022/04/07 14:03:09;;;;;;;0.30;0.30;;;15.80;98.20;;;;;;6286771;22;20087;-75
2022/04/07 14:05:35;;;;;;;0.45;0.25;;;15.80;98.30;;;;;;6314326;22;20010;-75
2022/04/07 14:08:01;;;;;;;0.77;0.30;;;15.70;98.40;;;;;;6286269;22;20079;-74
2022/04/07 14:10:27;;;;;;;1.67;0.30;;;15.60;98.30;;;;;;6286650;22;20012;-75
2022/04/07 14:12:53;;;;;;;0.30;0.30;;;15.40;98.50;;;;;;6314266;22;20008;-74
2022/04/07 14:15:18;;;;;;;1.45;0.70;;;15.40;99.40;;;;;;6314248;22;20313;-75
2022/04/07 14:17:45;;;;;;;0.93;0.40;;;15.40;99.10;;;;;;6286848;22;20071;-75
2022/04/07 14:20:12;;;;;;;0.35;0.30;;;15.40;99.50;;;;;;6313982;22;20428;-74
2022/04/07 14:22:41;;;;;;;3.33;0.60;;;15.40;99.20;;;;;;6314107;22;20015;-75
2022/04/07 14:25:07;;;;;;;2.05;0.30;;;15.50;98.80;;;;;;6314073;22;20081;-75
2022/04/07 14:27:32;;;;;;;2.63;0.60;;;15.50;99.60;;;;;;6314007;22;20024;-75
2022/04/07 14:29:58;;;;;;;1.70;0.40;;;15.60;99.10;;;;;;6313742;22;20012;-75
2022/04/07 14:32:23;;;;;;;1.67;0.30;;;15.50;98.60;;;;;;6286504;22;20394;-75
2022/04/07 14:34:49;;;;;;;1.02;0.40;;;15.40;98.90;;;;;;6314258;22;20012;-75
2022/04/07 14:37:15;;;;;;;0.57;0.30;;;15.40;99.60;;;;;;6314167;22;20004;-75
2022/04/07 14:39:40;;;;;;;2.25;0.40;;;15.40;99.60;;;;;;6313822;22;20043;-75
2022/04/07 14:42:06;;;;;;;0.20;0.20;;;15.30;99.90;;;;;;6314047;22;20465;-75
2022/04/07 14:44:32;;;;;;;1.05;0.47;;;15.10;99.90;;;;;;6313869;22;20432;-74
2022/04/07 14:46:58;;;;;;;0.70;0.30;;;15.00;99.90;;;;;;6313874;22;20022;-75
2022/04/07 14:49:29;;;;;;;0.63;0.38;;;14.90;99.90;;;;;;6286097;22;20363;-75
2022/04/07 14:51:55;;;;;;;0.30;0.30;;;14.80;99.90;;;;;;6313321;22;20023;-75
2022/04/07 14:54:23;;;;;;;0.57;0.43;;;14.70;99.90;;;;;;6314174;22;20415;-77
2022/04/07 14:56:49;;;;;;;0.47;0.40;;;14.50;99.90;;;;;;6313945;22;20036;-76
2022/04/07 14:59:15;;;;;;;0.40;0.32;;;14.20;99.90;;;;;;6285934;22;20016;-76
2022/04/07 15:01:41;;;;;;;0.28;0.28;;;13.90;99.90;;;;;;6313288;22;20040;-76
2022/04/07 15:04:07;;;;;;;1.55;0.60;;;13.50;99.90;;;;;;6286316;22;20077;-75
2022/04/07 15:06:33;;;;;;;0.43;0.43;;;12.90;99.90;;;;;;6313972;22;20000;-76
2022/04/07 15:08:58;;;;;;;2.00;0.80;;;12.40;99.90;;;;;;6313484;22;20466;-77
2022/04/07 15:11:24;;;;;;;1.25;0.70;;;12.10;99.90;;;;;;6285998;22;20483;-77
2022/04/07 15:13:50;;;;;;;1.50;0.50;;;11.80;99.90;;;;;;6313831;22;20007;-77
2022/04/07 15:16:15;;;;;;;1.55;0.68;;;11.50;99.90;;;;;;6286221;22;20053;-75
2022/04/07 15:18:41;;;;;;;0.90;0.50;;;11.60;99.90;;;;;;6313588;22;20011;-76
2022/04/07 15:21:06;;;;;;;1.80;0.52;;;11.50;99.90;;;;;;6313465;22;20478;-76
2022/04/07 15:23:32;;;;;;;2.65;0.50;;;11.50;99.90;;;;;;6313621;22;20010;-76
2022/04/07 15:25:57;;;;;;;1.30;0.60;;;11.50;99.90;;;;;;6313518;22;20088;-76
2022/04/07 15:28:23;;;;;;;1.55;0.60;;;11.40;99.90;;;;;;6285573;22;20378;-76
2022/04/07 15:30:49;;;;;;;1.45;0.50;;;11.40;99.90;;;;;;6313274;22;20340;-76
2022/04/07 15:33:15;;;;;;;1.75;0.75;;;11.40;99.90;;;;;;6313473;22;20054;-76
2022/04/07 15:35:42;;;;;;;3.03;0.80;;;11.30;99.90;;;;;;6313699;22;20344;-76
2022/04/07 15:38:08;;;;;;;1.52;0.90;;;11.30;99.90;;;;;;6285613;22;20015;-76
2022/04/07 15:40:36;;;;;;;3.80;1.00;;;11.20;99.90;;;;;;6285810;22;20039;-76
2022/04/07 15:43:01;;;;;;;4.28;0.63;;;11.10;99.90;;;;;;6313493;22;20075;-76
2022/04/07 15:45:27;;;;;;;0.82;0.60;;;11.00;99.90;;;;;;6313608;22;20078;-76
2022/04/07 15:47:52;;;;;;;2.28;0.77;;;11.00;99.90;;;;;;6285906;22;20083;-76
2022/04/07 15:50:18;;;;;;;12.80;6.97;;;11.00;99.90;;;;;;6313221;22;20047;-76
2022/04/07 15:52:43;;;;;;;2.38;0.80;;;10.90;99.90;;;;;;6313494;22;20012;-76
2022/04/07 15:55:09;;;;;;;5.32;1.67;;;10.90;99.90;;;;;;6313490;22;20057;-75
2022/04/07 15:57:38;;;;;;;5.70;2.42;;;10.80;99.90;;;;;;6313521;22;20435;-74
2022/04/07 16:00:05;;;;;;;3.33;1.00;;;10.80;99.90;;;;;;6313014;22;20014;-75
2022/04/07 16:02:31;;;;;;;4.72;1.85;;;10.80;99.90;;;;;;6312950;22;20010;-75
2022/04/07 16:04:56;;;;;;;4.30;1.67;;;10.70;99.90;;;;;;6313992;22;20071;-75
2022/04/07 16:07:25;;;;;;;18.98;7.50;;;10.70;99.90;;;;;;6287374;22;20011;-76
2022/04/07 16:09:52;;;;;;;12.30;5.97;;;10.70;99.90;;;;;;6286796;22;20095;-76
2022/04/07 16:12:18;;;;;;;3.63;2.65;;;10.60;99.90;;;;;;6314917;22;20000;-76
2022/04/07 16:14:47;;;;;;;3.80;1.95;;;10.50;99.90;;;;;;6311942;22;20007;-76
2022/04/07 16:17:13;;;;;;;2.53;1.55;;;10.50;99.90;;;;;;6282176;22;20094;-78
2022/04/07 16:19:38;;;;;;;1.45;0.90;;;10.40;99.90;;;;;;6283015;22;20009;-78
2022/04/07 16:22:05;;;;;;;2.65;1.00;;;10.30;99.90;;;;;;6283624;22;20075;-78
2022/04/07 16:24:31;;;;;;;1.90;1.00;;;10.20;99.90;;;;;;6283824;22;20453;-78
2022/04/07 16:26:56;;;;;;;4.25;1.17;;;10.10;99.90;;;;;;6283675;22;20446;-79
2022/04/07 16:29:22;;;;;;;2.65;1.10;;;10.00;99.90;;;;;;6283175;22;20058;-78
2022/04/07 16:31:51;;;;;;;3.00;0.90;;;9.90;99.90;;;;;;6282117;22;20004;-79
2022/04/07 16:34:17;;;;;;;1.65;1.00;;;9.90;99.90;;;;;;6281826;22;20012;-79
2022/04/07 16:36:43;;;;;;;1.40;0.65;;;9.80;99.90;;;;;;6283963;22;20057;-79
2022/04/07 16:39:09;;;;;;;2.33;0.98;;;9.80;99.90;;;;;;6281863;22;20091;-78
2022/04/07 16:41:35;;;;;;;2.53;1.00;;;9.80;99.90;;;;;;6282052;22;20087;-78
2022/04/07 16:44:00;;;;;;;3.00;1.88;;;9.80;99.90;;;;;;6283658;22;20030;-78
2022/04/07 16:46:26;;;;;;;3.25;1.23;;;9.70;99.90;;;;;;6282010;22;20044;-77
2022/04/07 16:48:51;;;;;;;2.65;1.23;;;9.70;99.90;;;;;;6281588;22;20371;-78
2022/04/07 16:51:17;;;;;;;2.78;1.63;;;9.70;99.90;;;;;;6283675;22;20431;-78
2022/04/07 16:53:42;;;;;;;3.63;2.05;;;9.70;99.90;;;;;;6281932;22;20348;-78
2022/04/07 16:56:08;;;;;;;4.95;1.30;;;9.70;99.90;;;;;;6283503;22;20027;-78